createdAt,value
2016-12-07T00:00:19.062Z,70.01
2016-12-07T00:01:28.835Z,69.92
2016-12-07T00:02:38.405Z,70.3
2016-12-07T00:03:48.202Z,69.92
2016-12-07T00:04:57.974Z,70.58
2016-12-07T00:06:07.765Z,70.49
2016-12-07T00:07:17.584Z,70.49
2016-12-07T00:08:27.071Z,70.49
2016-12-07T00:09:36.898Z,70.58
2016-12-07T00:10:46.683Z,70.49
2016-12-07T00:11:56.468Z,70.58
2016-12-07T00:13:06.262Z,70.49
2016-12-07T00:14:16.055Z,71.15
2016-12-07T00:15:25.510Z,71.15
2016-12-07T00:16:34.980Z,71.34
2016-12-07T00:17:44.759Z,71.88
2016-12-07T00:18:54.534Z,71.88
2016-12-07T00:20:04.303Z,71.78
2016-12-07T00:21:13.793Z,71.78
2016-12-07T00:22:23.340Z,71.97
2016-12-07T00:23:32.879Z,72.06
2016-12-07T00:24:42.343Z,72.25
2016-12-07T00:25:52.148Z,72.53
2016-12-07T00:27:01.396Z,72.34
2016-12-07T00:28:10.878Z,72.82
2016-12-07T00:29:20.692Z,72.63
2016-12-07T00:30:30.164Z,73.01
2016-12-07T00:31:39.623Z,72.82
2016-12-07T00:32:49.392Z,73.3
2016-12-07T00:33:58.893Z,73.01
2016-12-07T00:35:08.661Z,73.3
2016-12-07T00:36:18.538Z,73.58
2016-12-07T00:37:28.348Z,73.77
2016-12-07T00:38:37.814Z,73.68
2016-12-07T00:39:46.999Z,73.77
2016-12-07T00:40:56.452Z,73.86
2016-12-07T00:42:06.024Z,73.96
2016-12-07T00:43:15.479Z,74.05
2016-12-07T00:44:25.324Z,74.33
2016-12-07T00:45:35.175Z,73.86
2016-12-07T00:46:45.023Z,73.86
2016-12-07T00:47:54.834Z,74.05
2016-12-07T00:49:04.029Z,73.96
2016-12-07T00:50:13.844Z,73.96
2016-12-07T00:51:23.821Z,74.05
2016-12-07T00:52:33.273Z,73.96
2016-12-07T00:53:43.068Z,74.05
2016-12-07T00:54:52.893Z,74.05
2016-12-07T00:56:02.111Z,73.86
2016-12-07T00:57:11.880Z,73.96
2016-12-07T00:58:21.327Z,74.05
2016-12-07T00:59:30.474Z,73.96
2016-12-07T01:00:40.248Z,73.86
2016-12-07T01:01:50.052Z,73.86
2016-12-07T01:02:59.833Z,73.49
2016-12-07T01:04:09.355Z,73.77
2016-12-07T01:05:19.145Z,73.77
2016-12-07T01:06:28.982Z,74.24
2016-12-07T01:07:38.457Z,73.49
2016-12-07T01:08:48.012Z,74.24
2016-12-07T01:09:57.799Z,74.24
2016-12-07T01:11:07.251Z,74.24
2016-12-07T01:12:16.122Z,73.86
2016-12-07T01:13:25.570Z,74.05
2016-12-07T01:14:34.441Z,73.77
2016-12-07T01:15:44.312Z,73.86
2016-12-07T01:16:54.118Z,73.49
2016-12-07T01:18:03.933Z,73.58
2016-12-07T01:19:13.396Z,73.77
2016-12-07T01:20:23.066Z,73.86
2016-12-07T01:21:32.857Z,73.68
2016-12-07T01:22:41.732Z,73.49
2016-12-07T01:23:50.910Z,73.77
2016-12-07T01:25:00.700Z,73.86
2016-12-07T01:26:10.494Z,73.77
2016-12-07T01:27:20.325Z,73.86
2016-12-07T01:28:29.835Z,73.86
2016-12-07T01:29:39.295Z,73.96
2016-12-07T01:30:49.086Z,74.05
2016-12-07T01:31:58.576Z,73.86
2016-12-07T01:33:08.052Z,73.86
2016-12-07T01:34:17.506Z,73.39
2016-12-07T01:35:26.982Z,73.77
2016-12-07T01:36:36.469Z,73.45
2016-12-07T01:37:46.257Z,73.68
2016-12-07T01:38:56.033Z,73.64
2016-12-07T01:40:05.497Z,73.92
2016-12-07T01:41:14.940Z,73.92
2016-12-07T01:42:24.147Z,74.02
2016-12-07T01:43:33.967Z,74.02
2016-12-07T01:44:43.885Z,73.73
2016-12-07T01:45:53.424Z,74.02
2016-12-07T01:47:02.945Z,73.92
2016-12-07T01:48:12.423Z,74.02
2016-12-07T01:49:22.190Z,74.02
2016-12-07T01:50:31.130Z,74.11
2016-12-07T01:51:40.600Z,74.21
2016-12-07T01:52:50.464Z,74.11
2016-12-07T01:54:00.231Z,74.11
2016-12-07T01:55:09.106Z,74.21
2016-12-07T01:56:18.879Z,74.21
2016-12-07T01:57:28.380Z,74.02
2016-12-07T01:58:38.219Z,74.21
2016-12-07T01:59:48.068Z,74.4
2016-12-07T02:00:57.537Z,74.21
2016-12-07T02:02:06.988Z,74.21
2016-12-07T02:03:16.787Z,74.21
2016-12-07T02:04:26.601Z,74.21
2016-12-07T02:05:36.436Z,74.21
2016-12-07T02:06:46.200Z,73.92
2016-12-07T02:07:55.410Z,74.11
2016-12-07T02:09:05.225Z,74.21
2016-12-07T02:10:15.123Z,74.4
2016-12-07T02:11:24.906Z,74.21
2016-12-07T02:12:34.700Z,74.21
2016-12-07T02:13:43.849Z,74.21
2016-12-07T02:14:53.017Z,74.11
2016-12-07T02:16:02.632Z,74.3
2016-12-07T02:17:12.416Z,74.4
2016-12-07T02:18:22.178Z,74.11
2016-12-07T02:19:31.743Z,74.02
2016-12-07T02:20:41.520Z,74.21
2016-12-07T02:21:50.667Z,74.21
2016-12-07T02:23:00.526Z,74.21
2016-12-07T02:24:10.297Z,73.92
2016-12-07T02:25:20.084Z,74.11
2016-12-07T02:26:29.893Z,73.92
2016-12-07T02:27:39.049Z,74.02
2016-12-07T02:28:48.538Z,74.21
2016-12-07T02:29:58.366Z,74.49
2016-12-07T02:31:07.874Z,74.58
2016-12-07T02:32:17.713Z,74.4
2016-12-07T02:33:27.497Z,74.21
2016-12-07T02:34:37.453Z,74.58
2016-12-07T02:35:46.596Z,74.45
2016-12-07T02:36:56.067Z,74.21
2016-12-07T02:38:05.905Z,74.45
2016-12-07T02:39:15.417Z,74.36
2016-12-07T02:40:24.932Z,74.64
2016-12-07T02:41:34.724Z,74.45
2016-12-07T02:42:44.503Z,74.64
2016-12-07T02:43:54.304Z,74.45
2016-12-07T02:45:04.091Z,74.83
2016-12-07T02:46:13.862Z,74.83
2016-12-07T02:47:23.624Z,74.64
2016-12-07T02:48:32.793Z,74.64
2016-12-07T02:49:42.237Z,74.55
2016-12-07T02:50:52.008Z,75.02
2016-12-07T02:52:01.807Z,75.02
2016-12-07T02:53:11.312Z,74.64
2016-12-07T02:54:20.508Z,74.83
2016-12-07T02:55:29.969Z,74.83
2016-12-07T02:56:39.876Z,74.64
2016-12-07T02:57:49.341Z,74.55
2016-12-07T02:58:58.796Z,74.55
2016-12-07T03:00:08.256Z,74.45
2016-12-07T03:01:17.715Z,74.26
2016-12-07T03:02:27.255Z,74.55
2016-12-07T03:03:37.039Z,74.45
2016-12-07T03:04:46.915Z,73.88
2016-12-07T03:05:56.717Z,73.98
2016-12-07T03:07:05.867Z,74.07
2016-12-07T03:08:15.676Z,73.98
2016-12-07T03:09:25.469Z,74.17
2016-12-07T03:10:35.289Z,74.17
2016-12-07T03:11:45.123Z,74.26
2016-12-07T03:12:54.625Z,74.36
2016-12-07T03:14:04.446Z,74.26
2016-12-07T03:15:13.902Z,73.98
2016-12-07T03:16:23.714Z,73.69
2016-12-07T03:17:33.165Z,73.98
2016-12-07T03:18:42.028Z,73.98
2016-12-07T03:19:51.830Z,73.41
2016-12-07T03:21:01.632Z,73.79
2016-12-07T03:22:11.125Z,73.5
2016-12-07T03:23:20.588Z,73.41
2016-12-07T03:24:30.054Z,73.98
2016-12-07T03:25:39.879Z,73.69
2016-12-07T03:26:49.663Z,73.69
2016-12-07T03:27:59.219Z,73.69
2016-12-07T03:29:08.677Z,73.69
2016-12-07T03:30:18.157Z,73.88
2016-12-07T03:31:27.971Z,73.69
2016-12-07T03:32:37.479Z,73.88
2016-12-07T03:33:46.982Z,73.88
2016-12-07T03:34:56.463Z,73.69
2016-12-07T03:36:06.259Z,73.6
2016-12-07T03:37:16.038Z,73.69
2016-12-07T03:40:07.475Z,73.32
2016-12-07T03:41:16.950Z,73.22
2016-12-07T03:42:26.120Z,73.22
2016-12-07T03:43:35.960Z,73.22
2016-12-07T03:44:45.750Z,72.85
2016-12-07T03:45:55.520Z,73.03
2016-12-07T03:47:05.338Z,73.03
2016-12-07T03:48:15.163Z,72.94
2016-12-07T03:49:24.945Z,73.03
2016-12-07T03:50:34.747Z,73.32
2016-12-07T03:51:44.548Z,72.56
2016-12-07T03:52:54.327Z,72.94
2016-12-07T03:54:03.605Z,72.75
2016-12-07T03:55:13.266Z,72.85
2016-12-07T03:56:23.103Z,72.56
2016-12-07T03:57:32.894Z,72.37
2016-12-07T03:58:42.674Z,72.28
2016-12-07T03:59:52.146Z,72.37
2016-12-07T04:01:01.954Z,72.66
2016-12-07T04:02:11.763Z,72.56
2016-12-07T04:03:21.588Z,72.37
2016-12-07T04:04:30.774Z,72.75
2016-12-07T04:05:40.680Z,72.37
2016-12-07T04:06:49.566Z,72.37
2016-12-07T04:07:59.342Z,72.47
2016-12-07T04:09:08.802Z,72.28
2016-12-07T04:10:18.264Z,72.37
2016-12-07T04:11:28.198Z,72.75
2016-12-07T04:12:37.418Z,72.66
2016-12-07T04:13:46.901Z,72.47
2016-12-07T04:14:56.693Z,72.37
2016-12-07T04:16:05.845Z,72.47
2016-12-07T04:17:15.667Z,72.56
2016-12-07T04:18:25.144Z,72.56
2016-12-07T04:19:34.320Z,72.37
2016-12-07T04:20:43.809Z,72.56
2016-12-07T04:21:53.374Z,72.56
2016-12-07T04:23:03.207Z,72.28
2016-12-07T04:24:13.001Z,72.18
2016-12-07T04:25:22.245Z,72.56
2016-12-07T04:26:31.780Z,72.75
2016-12-07T04:27:41.626Z,72.47
2016-12-07T04:28:51.468Z,72.28
2016-12-07T04:30:01.285Z,72.56
2016-12-07T04:31:10.831Z,72.37
2016-12-07T04:32:20.626Z,72.47
2016-12-07T04:33:30.179Z,72.85
2016-12-07T04:34:39.015Z,72.56
2016-12-07T04:35:48.483Z,72.85
2016-12-07T04:36:58.268Z,72.85
2016-12-07T04:38:07.452Z,72.85
2016-12-07T04:39:16.694Z,72.75
2016-12-07T04:40:26.170Z,72.85
2016-12-07T04:41:35.640Z,72.56
2016-12-07T04:42:45.412Z,72.56
2016-12-07T04:43:55.181Z,72.56
2016-12-07T04:45:04.990Z,72.85
2016-12-07T04:46:14.758Z,72.56
2016-12-07T04:47:24.021Z,72.56
2016-12-07T04:48:33.175Z,73.03
2016-12-07T04:49:42.647Z,72.9
2016-12-07T04:50:52.428Z,72.71
2016-12-07T04:52:01.604Z,72.71
2016-12-07T04:53:11.084Z,72.62
2016-12-07T04:54:20.888Z,72.43
2016-12-07T04:55:30.696Z,72.85
2016-12-07T04:56:40.157Z,72.43
2016-12-07T04:57:50.028Z,72.52
2016-12-07T04:58:59.827Z,72.52
2016-12-07T05:00:09.603Z,72.52
2016-12-07T05:01:19.067Z,72.62
2016-12-07T05:02:28.835Z,72.43
2016-12-07T05:03:38.293Z,72.43
2016-12-07T05:04:47.441Z,72.14
2016-12-07T05:05:57.066Z,72.71
2016-12-07T05:07:06.533Z,72.33
2016-12-07T05:08:16.336Z,72.43
2016-12-07T05:09:26.121Z,72.43
2016-12-07T05:10:35.725Z,72.71
2016-12-07T05:11:45.568Z,72.52
2016-12-07T05:12:55.373Z,72.9
2016-12-07T05:14:05.130Z,72.8
2016-12-07T05:15:14.741Z,72.52
2016-12-07T05:16:24.582Z,72.52
2016-12-07T05:17:34.051Z,72.99
2016-12-07T05:18:43.507Z,72.99
2016-12-07T05:19:52.993Z,72.62
2016-12-07T05:21:02.877Z,72.52
2016-12-07T05:22:12.659Z,72.8
2016-12-07T05:23:22.459Z,72.8
2016-12-07T05:24:32.248Z,72.8
2016-12-07T05:25:42.007Z,72.71
2016-12-07T05:26:51.813Z,72.71
2016-12-07T05:28:00.964Z,72.8
2016-12-07T05:29:10.730Z,72.9
2016-12-07T05:30:19.775Z,72.71
2016-12-07T05:31:29.246Z,72.99
2016-12-07T05:32:38.711Z,73.18
2016-12-07T05:33:48.174Z,72.62
2016-12-07T05:34:57.629Z,72.62
2016-12-07T05:36:07.142Z,72.62
2016-12-07T05:37:16.933Z,72.71
2016-12-07T05:38:26.474Z,72.62
2016-12-07T05:39:36.259Z,72.8
2016-12-07T05:40:45.727Z,72.71
2016-12-07T05:41:55.537Z,72.71
2016-12-07T05:43:04.998Z,72.99
2016-12-07T05:44:14.798Z,72.52
2016-12-07T05:45:24.007Z,72.43
2016-12-07T05:46:32.854Z,72.62
2016-12-07T05:47:42.653Z,72.62
2016-12-07T05:48:52.499Z,72.43
2016-12-07T05:50:02.325Z,72.52
2016-12-07T05:51:12.118Z,72.05
2016-12-07T05:52:21.914Z,72.24
2016-12-07T05:53:31.398Z,72.33
2016-12-07T05:54:40.921Z,72.14
2016-12-07T05:55:50.736Z,72.2
2016-12-07T05:57:00.618Z,72.14
2016-12-07T05:58:10.396Z,72.39
2016-12-07T05:59:19.893Z,72.39
2016-12-07T06:00:29.789Z,72.43
2016-12-07T06:01:39.574Z,72.33
2016-12-07T06:02:49.338Z,72.8
2016-12-07T06:03:33.574Z,72.62
2016-12-07T06:04:43.400Z,72.9
2016-12-07T06:05:53.173Z,72.71
2016-12-07T06:07:03.060Z,72.43
2016-12-07T06:08:12.561Z,72.24
2016-12-07T06:09:21.726Z,72.33
2016-12-07T06:10:31.198Z,71.67
2016-12-07T06:11:40.370Z,71.95
2016-12-07T06:12:49.839Z,71.67
2016-12-07T06:13:59.359Z,71.67
2016-12-07T06:15:08.844Z,71.48
2016-12-07T06:16:18.615Z,71.95
2016-12-07T06:17:28.130Z,71.3
2016-12-07T06:18:38.099Z,70.73
2016-12-07T06:19:47.892Z,71.48
2016-12-07T06:20:57.678Z,71.3
2016-12-07T06:22:07.139Z,71.3
2016-12-07T06:23:16.611Z,71.11
2016-12-07T06:24:26.410Z,71.2
2016-12-07T06:25:36.207Z,71.48
2016-12-07T06:26:45.688Z,71.45
2016-12-07T06:27:54.557Z,71.3
2016-12-07T06:29:03.703Z,71.16
2016-12-07T06:30:13.479Z,70.69
2016-12-07T06:31:22.994Z,70.97
2016-12-07T06:32:32.168Z,70.88
2016-12-07T06:33:41.937Z,70.88
2016-12-07T06:34:51.702Z,70.78
2016-12-07T06:36:01.493Z,70.78
2016-12-07T06:37:11.380Z,70.88
2016-12-07T06:38:20.989Z,70.97
2016-12-07T06:39:30.760Z,70.59
2016-12-07T06:40:40.559Z,70.97
2016-12-07T06:41:50.432Z,70.5
2016-12-07T06:42:59.949Z,70.5
2016-12-07T06:44:09.719Z,70.5
2016-12-07T06:45:19.247Z,70.5
2016-12-07T06:46:29.076Z,70.5
2016-12-07T06:47:38.560Z,70.31
2016-12-07T06:48:47.828Z,70.97
2016-12-07T06:49:57.653Z,70.4
2016-12-07T06:51:07.758Z,70.97
2016-12-07T06:52:17.565Z,70.69
2016-12-07T06:53:26.870Z,70.59
2016-12-07T06:54:36.013Z,70.88
2016-12-07T06:56:17.617Z,70.78
2016-12-07T06:57:27.114Z,71.16
2016-12-07T06:58:36.912Z,70.5
2016-12-07T06:59:46.683Z,71.07
2016-12-07T07:00:56.498Z,70.97
2016-12-07T07:02:06.287Z,70.97
2016-12-07T07:03:15.767Z,70.5
2016-12-07T07:04:25.284Z,70.88
2016-12-07T07:05:34.746Z,70.5
2016-12-07T07:06:43.592Z,70.31
2016-12-07T07:07:52.773Z,70.31
2016-12-07T07:09:02.275Z,70.5
2016-12-07T07:10:11.732Z,70.21
2016-12-07T07:11:20.947Z,70.31
2016-12-07T07:12:30.431Z,70.31
2016-12-07T07:13:40.189Z,70.21
2016-12-07T07:14:49.967Z,70.4
2016-12-07T07:15:59.137Z,70.21
2016-12-07T07:17:08.944Z,70.31
2016-12-07T07:18:18.735Z,70.21
2016-12-07T07:19:28.221Z,69.93
2016-12-07T07:20:37.989Z,70.21
2016-12-07T07:21:47.573Z,70.21
2016-12-07T07:22:57.391Z,70.31
2016-12-07T07:24:06.584Z,70.31
2016-12-07T07:25:16.367Z,70.5
2016-12-07T07:26:25.517Z,69.74
2016-12-07T07:27:35.448Z,70.21
2016-12-07T07:28:44.600Z,69.84
2016-12-07T07:29:54.088Z,69.46
2016-12-07T07:31:03.571Z,69.65
2016-12-07T07:32:13.363Z,69.74
2016-12-07T07:33:23.132Z,69.93
2016-12-07T07:34:32.624Z,70.03
2016-12-07T07:35:42.395Z,70.03
2016-12-07T07:36:51.854Z,69.84
2016-12-07T07:38:01.318Z,69.56
2016-12-07T07:39:10.470Z,69.84
2016-12-07T07:40:20.230Z,69.84
2016-12-07T07:41:29.427Z,69.74
2016-12-07T07:42:38.863Z,69.74
2016-12-07T07:43:48.386Z,69.93
2016-12-07T07:44:58.253Z,69.84
2016-12-07T07:46:08.061Z,69.84
2016-12-07T07:47:17.530Z,69.46
2016-12-07T07:48:26.828Z,69.37
2016-12-07T07:49:36.333Z,69.46
2016-12-07T07:50:45.783Z,69.49
2016-12-07T07:51:55.235Z,69.27
2016-12-07T07:53:04.498Z,69.27
2016-12-07T07:54:13.881Z,69.37
2016-12-07T07:55:23.383Z,69.09
2016-12-07T07:56:33.194Z,69.46
2016-12-07T07:57:42.681Z,69.27
2016-12-07T07:58:52.447Z,69.46
2016-12-07T08:00:01.987Z,69.18
2016-12-07T08:01:11.235Z,68.99
2016-12-07T08:02:21.060Z,69.46
2016-12-07T08:03:30.870Z,69.27
2016-12-07T08:04:40.669Z,69.37
2016-12-07T08:05:50.436Z,69.46
2016-12-07T08:06:59.894Z,69.31
2016-12-07T08:08:09.579Z,68.93
2016-12-07T08:09:19.344Z,68.93
2016-12-07T08:10:28.803Z,68.84
2016-12-07T08:11:38.636Z,68.93
2016-12-07T08:12:48.116Z,68.93
2016-12-07T08:13:57.924Z,69.02
2016-12-07T08:15:07.714Z,68.71
2016-12-07T08:16:17.176Z,68.99
2016-12-07T08:17:26.175Z,68.8
2016-12-07T08:18:35.679Z,69.27
2016-12-07T08:19:45.161Z,68.8
2016-12-07T08:20:54.710Z,68.84
2016-12-07T08:22:04.201Z,68.74
2016-12-07T08:23:13.676Z,68.74
2016-12-07T08:24:23.492Z,68.93
2016-12-07T08:25:33.260Z,69.02
2016-12-07T08:26:42.162Z,68.71
2016-12-07T08:27:51.917Z,68.99
2016-12-07T08:29:01.725Z,68.99
2016-12-07T08:30:11.219Z,68.71
2016-12-07T08:31:20.777Z,69.46
2016-12-07T08:32:30.256Z,69.37
2016-12-07T08:33:39.723Z,69.56
2016-12-07T08:34:49.501Z,69.46
2016-12-07T08:35:58.956Z,69.02
2016-12-07T08:37:08.728Z,69.4
2016-12-07T08:38:18.189Z,69.4
2016-12-07T08:39:28.097Z,69.21
2016-12-07T08:40:37.878Z,68.74
2016-12-07T08:41:47.379Z,68.93
2016-12-07T08:42:56.848Z,68.84
2016-12-07T08:44:06.314Z,69.02
2016-12-07T08:45:15.547Z,69.02
2016-12-07T08:46:25.349Z,68.74
2016-12-07T08:47:35.127Z,68.93
2016-12-07T08:48:44.992Z,69.02
2016-12-07T08:49:54.503Z,68.55
2016-12-07T08:51:03.960Z,68.55
2016-12-07T08:52:13.424Z,68.74
2016-12-07T08:53:22.883Z,68.65
2016-12-07T08:54:32.358Z,68.55
2016-12-07T08:55:42.123Z,68.02
2016-12-07T08:56:51.949Z,67.93
2016-12-07T08:58:01.758Z,67.83
2016-12-07T08:59:11.536Z,68.08
2016-12-07T09:00:21.341Z,67.83
2016-12-07T09:01:30.972Z,67.93
2016-12-07T09:02:40.777Z,68.02
2016-12-07T09:03:50.294Z,67.83
2016-12-07T09:05:00.082Z,67.93
2016-12-07T09:06:09.979Z,67.74
2016-12-07T09:07:19.440Z,67.26
2016-12-07T09:09:00.443Z,67.83
2016-12-07T09:10:09.939Z,67.45
2016-12-07T09:11:19.729Z,67.64
2016-12-07T09:12:29.296Z,67.45
2016-12-07T09:13:39.091Z,67.64
2016-12-07T09:14:48.455Z,67.74
2016-12-07T09:15:58.058Z,67.83
2016-12-07T09:17:07.915Z,67.64
2016-12-07T09:18:17.376Z,67.17
2016-12-07T09:19:26.524Z,67.36
2016-12-07T09:20:35.981Z,67.55
2016-12-07T09:21:45.450Z,67.74
2016-12-07T09:22:55.242Z,67.83
2016-12-07T09:24:04.421Z,67.83
2016-12-07T09:25:13.896Z,67.79
2016-12-07T09:26:23.351Z,67.74
2016-12-07T09:27:32.492Z,67.36
2016-12-07T09:28:42.284Z,67.64
2016-12-07T09:29:51.782Z,67.36
2016-12-07T09:31:00.952Z,67.55
2016-12-07T09:32:10.443Z,67.74
2016-12-07T09:33:19.999Z,67.55
2016-12-07T09:34:29.482Z,67.26
2016-12-07T09:35:38.632Z,67.17
2016-12-07T09:36:48.090Z,67.45
2016-12-07T09:37:57.593Z,67.45
2016-12-07T09:39:07.356Z,67.26
2016-12-07T09:40:16.516Z,67.17
2016-12-07T09:41:25.660Z,66.98
2016-12-07T09:42:35.453Z,67.07
2016-12-07T09:43:44.967Z,67.07
2016-12-07T09:44:54.690Z,66.69
2016-12-07T09:46:04.508Z,66.63
2016-12-07T09:47:14.055Z,66.82
2016-12-07T09:48:23.545Z,66.73
2016-12-07T09:49:33.377Z,66.06
2016-12-07T09:50:43.139Z,66.35
2016-12-07T09:51:52.631Z,65.88
2016-12-07T09:53:02.130Z,65.5
2016-12-07T09:54:11.293Z,65.44
2016-12-07T09:55:21.173Z,65.15
2016-12-07T09:56:30.937Z,64.87
2016-12-07T09:57:40.785Z,64.61
2016-12-07T09:58:50.242Z,63.76
2016-12-07T10:00:00.014Z,63.39
2016-12-07T10:01:09.168Z,62.62
2016-12-07T10:02:18.845Z,62.66
2016-12-07T10:03:27.992Z,62.37
2016-12-07T10:04:37.840Z,62.28
2016-12-07T10:05:47.730Z,61.61
2016-12-07T10:06:57.511Z,61.71
2016-12-07T10:08:07.375Z,61.33
2016-12-07T10:09:17.215Z,61.24
2016-12-07T10:10:27.000Z,61.14
2016-12-07T10:11:36.296Z,61.05
2016-12-07T10:12:46.070Z,60.95
2016-12-07T10:13:55.246Z,60.76
2016-12-07T10:15:04.699Z,61.24
2016-12-07T10:16:14.158Z,60.92
2016-12-07T10:17:23.937Z,60.76
2016-12-07T10:18:33.083Z,60.86
2016-12-07T10:19:42.846Z,60.57
2016-12-07T10:20:52.437Z,60.38
2016-12-07T10:22:02.296Z,60.47
2016-12-07T10:23:12.088Z,60.38
2016-12-07T10:24:21.917Z,59.91
2016-12-07T10:25:31.714Z,59.66
2016-12-07T10:26:41.507Z,59.75
2016-12-07T10:27:50.985Z,59.27
2016-12-07T10:29:00.769Z,59.18
2016-12-07T10:30:09.973Z,58.99
2016-12-07T10:31:19.985Z,58.7
2016-12-07T10:32:29.793Z,58.7
2016-12-07T10:33:39.585Z,58.61
2016-12-07T10:34:49.403Z,58.7
2016-12-07T10:35:58.857Z,58.42
2016-12-07T10:37:08.043Z,58.8
2016-12-07T10:38:17.232Z,58.8
2016-12-07T10:39:26.993Z,58.77
2016-12-07T10:40:36.176Z,58.77
2016-12-07T10:41:45.957Z,59.44
2016-12-07T10:42:55.745Z,59.34
2016-12-07T10:44:05.006Z,59.44
2016-12-07T10:45:14.181Z,59.69
2016-12-07T10:46:23.953Z,59.88
2016-12-07T10:47:33.459Z,60.06
2016-12-07T10:48:42.383Z,60.54
2016-12-07T10:49:51.570Z,60.83
2016-12-07T10:51:01.415Z,61.11
2016-12-07T10:52:10.873Z,60.83
2016-12-07T10:53:20.385Z,61.3
2016-12-07T10:54:30.168Z,61.77
2016-12-07T10:55:39.647Z,61.96
2016-12-07T10:56:49.457Z,61.87
2016-12-07T10:57:59.277Z,61.77
2016-12-07T10:59:09.090Z,62.05
2016-12-07T11:00:18.561Z,62.15
2016-12-07T11:01:27.795Z,62.05
2016-12-07T11:02:37.664Z,62.43
2016-12-07T11:03:47.135Z,62.62
2016-12-07T11:04:56.924Z,62.59
2016-12-07T11:06:06.703Z,63.07
2016-12-07T11:07:16.505Z,63.16
2016-12-07T11:08:26.272Z,63.26
2016-12-07T11:09:35.749Z,63.82
2016-12-07T11:10:44.941Z,63.64
2016-12-07T11:11:54.742Z,63.35
2016-12-07T11:13:04.209Z,63.35
2016-12-07T11:14:14.013Z,64.01
2016-12-07T11:15:23.497Z,64.01
2016-12-07T11:16:33.026Z,63.82
2016-12-07T11:17:42.486Z,64.2
2016-12-07T11:18:52.255Z,63.92
2016-12-07T11:20:02.040Z,64.3
2016-12-07T11:21:11.610Z,64.49
2016-12-07T11:22:21.116Z,64.68
2016-12-07T11:23:30.604Z,64.49
2016-12-07T11:24:40.452Z,64.58
2016-12-07T11:25:50.268Z,64.77
2016-12-07T11:27:00.067Z,64.87
2016-12-07T11:28:09.544Z,64.87
2016-12-07T11:29:19.347Z,64.96
2016-12-07T11:30:29.114Z,64.77
2016-12-07T11:31:38.671Z,65.15
2016-12-07T11:32:48.487Z,65.06
2016-12-07T11:33:58.306Z,65.34
2016-12-07T11:35:07.781Z,65.81
2016-12-07T11:36:17.545Z,65.34
2016-12-07T11:37:27.151Z,65.72
2016-12-07T11:38:36.621Z,65.44
2016-12-07T11:39:46.186Z,65.34
2016-12-07T11:40:55.679Z,65.91
2016-12-07T11:42:05.483Z,65.34
2016-12-07T11:43:15.322Z,65.44
2016-12-07T11:44:25.090Z,65.44
2016-12-07T11:45:34.885Z,65.72
2016-12-07T11:46:44.793Z,65.44
2016-12-07T11:47:54.274Z,65.72
2016-12-07T11:49:04.041Z,65.34
2016-12-07T11:50:13.837Z,65.34
2016-12-07T11:51:23.430Z,65.34
2016-12-07T11:52:33.198Z,65.72
2016-12-07T11:53:42.702Z,65.91
2016-12-07T11:54:52.476Z,65.72
2016-12-07T11:56:01.958Z,65.72
2016-12-07T11:57:11.743Z,65.72
2016-12-07T11:58:21.559Z,65.84
2016-12-07T11:59:31.345Z,65.94
2016-12-07T12:00:41.223Z,66.03
2016-12-07T12:01:50.689Z,65.75
2016-12-07T12:03:00.297Z,65.63
2016-12-07T12:04:10.074Z,65.91
2016-12-07T12:05:19.262Z,65.84
2016-12-07T12:06:28.746Z,65.63
2016-12-07T12:07:38.612Z,65.94
2016-12-07T12:08:48.385Z,65.75
2016-12-07T12:09:58.167Z,65.91
2016-12-07T12:11:07.637Z,65.81
2016-12-07T12:12:17.464Z,66.38
2016-12-07T12:13:27.335Z,66.09
2016-12-07T12:14:36.881Z,66.38
2016-12-07T12:15:46.715Z,66.19
2016-12-07T12:16:56.222Z,66.28
2016-12-07T12:18:05.996Z,66.13
2016-12-07T12:19:15.787Z,66.09
2016-12-07T12:20:25.601Z,66.28
2016-12-07T12:21:35.380Z,66.22
2016-12-07T12:22:45.170Z,66.13
2016-12-07T12:23:54.663Z,66.32
2016-12-07T12:25:04.446Z,66.8
2016-12-07T12:26:14.330Z,66.8
2016-12-07T12:27:24.208Z,66.51
2016-12-07T12:28:34.059Z,66.89
2016-12-07T12:29:43.538Z,66.51
2016-12-07T12:30:53.325Z,66.7
2016-12-07T12:32:03.115Z,66.51
2016-12-07T12:33:12.955Z,66.51
2016-12-07T12:34:22.448Z,66.7
2016-12-07T12:35:32.251Z,66.41
2016-12-07T12:36:41.461Z,66.7
2016-12-07T12:37:50.977Z,67.08
2016-12-07T12:39:00.785Z,66.89
2016-12-07T12:40:10.248Z,66.99
2016-12-07T12:41:19.774Z,67.27
2016-12-07T12:42:29.592Z,67.18
2016-12-07T12:43:39.438Z,67.08
2016-12-07T12:44:48.910Z,66.99
2016-12-07T12:45:58.064Z,66.7
2016-12-07T12:47:07.844Z,66.89
2016-12-07T12:48:17.748Z,67.08
2016-12-07T12:49:27.526Z,67.36
2016-12-07T12:50:37.007Z,67.36
2016-12-07T12:51:46.173Z,67.46
2016-12-07T12:52:55.992Z,67.36
2016-12-07T12:54:05.804Z,67.36
2016-12-07T12:55:15.589Z,67.36
2016-12-07T12:56:25.372Z,67.46
2016-12-07T12:57:34.873Z,67.46
2016-12-07T12:58:44.659Z,67.46
2016-12-07T12:59:54.519Z,66.99
2016-12-07T13:01:03.988Z,67.27
2016-12-07T13:02:13.830Z,67.55
2016-12-07T13:03:23.659Z,67.36
2016-12-07T13:04:32.828Z,67.36
2016-12-07T13:05:42.638Z,67.46
2016-12-07T13:06:52.510Z,67.55
2016-12-07T13:08:02.023Z,67.27
2016-12-07T13:09:11.495Z,67.55
2016-12-07T13:10:21.302Z,67.74
2016-12-07T13:11:30.803Z,67.83
2016-12-07T13:12:40.362Z,67.83
2016-12-07T13:13:50.369Z,67.65
2016-12-07T13:14:59.869Z,67.36
2016-12-07T13:16:08.737Z,67.93
2016-12-07T13:17:18.731Z,67.93
2016-12-07T13:18:28.578Z,68.12
2016-12-07T13:19:38.074Z,67.93
2016-12-07T13:20:47.939Z,67.93
2016-12-07T13:21:57.818Z,68.31
2016-12-07T13:23:06.978Z,68.02
2016-12-07T13:24:16.567Z,67.93
2016-12-07T13:25:26.420Z,68.12
2016-12-07T13:26:35.908Z,67.93
2016-12-07T13:27:45.714Z,67.83
2016-12-07T13:28:55.207Z,67.93
2016-12-07T13:30:05.035Z,68.02
2016-12-07T13:31:14.375Z,67.93
2016-12-07T13:32:24.179Z,68.59
2016-12-07T13:33:33.337Z,68.59
2016-12-07T13:34:43.142Z,68.4
2016-12-07T13:35:52.655Z,68.88
2016-12-07T13:37:02.439Z,68.79
2016-12-07T13:38:11.942Z,68.79
2016-12-07T13:39:21.090Z,68.69
2016-12-07T13:40:29.988Z,68.98
2016-12-07T13:41:39.860Z,69.07
2016-12-07T13:42:49.132Z,68.88
2016-12-07T13:43:58.924Z,68.88
2016-12-07T13:45:08.387Z,68.79
2016-12-07T13:46:18.261Z,69.26
2016-12-07T13:47:27.757Z,69.17
2016-12-07T13:48:36.924Z,69.07
2016-12-07T13:49:46.411Z,69.17
2016-12-07T13:50:55.889Z,69.07
2016-12-07T13:52:05.080Z,69.26
2016-12-07T13:53:14.883Z,69.17
2016-12-07T13:54:24.817Z,68.88
2016-12-07T13:55:34.705Z,69.54
2016-12-07T13:56:44.500Z,69.54
2016-12-07T13:57:53.651Z,69.54
2016-12-07T13:59:03.122Z,69.54
2016-12-07T14:00:12.616Z,69.38
2016-12-07T14:01:22.424Z,69.54
2016-12-07T14:02:31.987Z,69.57
2016-12-07T14:03:41.471Z,69.48
2016-12-07T14:04:51.290Z,69.77
2016-12-07T14:06:01.093Z,69.67
2016-12-07T14:07:10.922Z,69.57
2016-12-07T14:08:20.732Z,69.67
2016-12-07T14:09:30.210Z,69.57
2016-12-07T14:10:39.996Z,69.48
2016-12-07T14:11:49.499Z,69.48
2016-12-07T14:12:59.309Z,69.54
2016-12-07T14:14:09.141Z,69.67
2016-12-07T14:15:18.653Z,70.11
2016-12-07T14:16:28.438Z,70.05
2016-12-07T14:17:37.923Z,69.77
2016-12-07T14:18:47.422Z,69.86
2016-12-07T14:19:57.210Z,70.15
2016-12-07T14:21:07.001Z,69.96
2016-12-07T14:22:16.844Z,70.05
2016-12-07T14:23:26.661Z,69.77
2016-12-07T14:24:35.824Z,69.96
2016-12-07T14:25:45.320Z,69.77
2016-12-07T14:26:54.834Z,70.15
2016-12-07T14:28:04.002Z,70.24
2016-12-07T14:29:13.488Z,70.34
2016-12-07T14:30:23.293Z,70.24
2016-12-07T14:31:33.117Z,70.34
2016-12-07T14:32:42.601Z,70.05
2016-12-07T14:33:52.069Z,70.72
2016-12-07T14:35:01.539Z,70.43
2016-12-07T14:36:11.057Z,70.43
2016-12-07T14:37:20.545Z,70.72
2016-12-07T14:38:30.340Z,70.53
2016-12-07T14:39:40.125Z,70.43
2016-12-07T14:40:49.598Z,70.34
2016-12-07T14:41:59.436Z,70.53
2016-12-07T14:43:09.225Z,70.62
2016-12-07T14:44:18.711Z,70.62
2016-12-07T14:45:28.512Z,70.81
2016-12-07T14:46:38.089Z,70.53
2016-12-07T14:47:47.875Z,71.09
2016-12-07T14:48:57.735Z,71.19
2016-12-07T14:50:07.240Z,71.28
2016-12-07T14:51:17.084Z,71
2016-12-07T14:52:26.253Z,71.19
2016-12-07T14:53:36.076Z,71.28
2016-12-07T14:54:45.537Z,70.9
2016-12-07T14:55:55.422Z,70.9
2016-12-07T14:57:05.226Z,71.19
2016-12-07T14:58:15.011Z,71.19
2016-12-07T14:59:24.513Z,71.38
2016-12-07T15:00:34.430Z,71.66